Who's Online

We have 8 guests online

GK Weather

An error occured during parsing XML data. Please try again.

Aviation WX

[source: ADDS]
METAR
KIAD 040952Z 33003KT 10SM FEW250 23/19 A2995 RMK AO2 SLP137 T02280194 =
TAF
KIAD 040919Z 0409/0512 33004KT P6SM SCT250 FM041400 05006KT P6SM SCT050 FM041800 04005KT P6SM BKN050 FM042200 11007KT P6SM BKN050 FM050400 05007KT P6SM SCT015 BKN020 =
SR / SS: 00:24 / 13:17 UTC (Washington-Dulles 2015-09-04)

JoomlaWatch Agent

Home Links
We are regularly out on the Web. When we find a great site we list it.